sensor_id;sensor_type;location;lat;lon;timestamp;pressure;altitude;pressure_sealevel;temperature;humidity
75640;BME280;64233;51.486;6.332;2023-09-19T00:01:45;100523.63;;;14.36;100.00
75640;BME280;64233;51.486;6.332;2023-09-19T00:04:11;100515.31;;;14.27;100.00
75640;BME280;64233;51.486;6.332;2023-09-19T00:06:38;100514.00;;;14.20;100.00
75640;BME280;64233;51.486;6.332;2023-09-19T00:09:04;100520.47;;;14.24;100.00
75640;BME280;64233;51.486;6.332;2023-09-19T00:11:29;100526.44;;;14.16;100.00
75640;BME280;64233;51.486;6.332;2023-09-19T00:13:56;100526.16;;;14.17;100.00
75640;BME280;64233;51.486;6.332;2023-09-19T00:16:24;100529.22;;;14.10;100.00
75640;BME280;64233;51.486;6.332;2023-09-19T00:18:50;100526.81;;;14.04;100.00
75640;BME280;64233;51.486;6.332;2023-09-19T00:21:15;100531.66;;;14.02;100.00
75640;BME280;64233;51.486;6.332;2023-09-19T00:23:40;100530.31;;;14.04;100.00
75640;BME280;64233;51.486;6.332;2023-09-19T00:26:08;100532.22;;;14.04;100.00
75640;BME280;64233;51.486;6.332;2023-09-19T00:28:34;100540.34;;;13.99;100.00
75640;BME280;64233;51.486;6.332;2023-09-19T00:31:00;100541.16;;;13.99;100.00
75640;BME280;64233;51.486;6.332;2023-09-19T00:33:27;100543.31;;;13.97;100.00
75640;BME280;64233;51.486;6.332;2023-09-19T00:35:56;100539.03;;;13.91;100.00
75640;BME280;64233;51.486;6.332;2023-09-19T00:38:22;100547.94;;;13.91;100.00
75640;BME280;64233;51.486;6.332;2023-09-19T00:40:52;100540.97;;;13.85;100.00
75640;BME280;64233;51.486;6.332;2023-09-19T00:43:21;100542.88;;;13.80;100.00
75640;BME280;64233;51.486;6.332;2023-09-19T00:45:50;100545.31;;;13.76;100.00
75640;BME280;64233;51.486;6.332;2023-09-19T00:48:16;100551.53;;;13.76;100.00
75640;BME280;64233;51.486;6.332;2023-09-19T00:50:43;100556.09;;;13.76;100.00
75640;BME280;64233;51.486;6.332;2023-09-19T00:53:09;100559.88;;;13.75;100.00
75640;BME280;64233;51.486;6.332;2023-09-19T00:55:38;100554.25;;;13.66;100.00
75640;BME280;64233;51.486;6.332;2023-09-19T00:58:05;100561.78;;;13.74;100.00
75640;BME280;64233;51.486;6.332;2023-09-19T01:00:32;100563.69;;;13.69;100.00
75640;BME280;64233;51.486;6.332;2023-09-19T01:02:59;100571.50;;;13.70;100.00
75640;BME280;64233;51.486;6.332;2023-09-19T01:05:26;100566.16;;;13.65;100.00
75640;BME280;64233;51.486;6.332;2023-09-19T01:07:51;100576.09;;;13.65;100.00
75640;BME280;64233;51.486;6.332;2023-09-19T01:10:18;100571.53;;;13.65;100.00
75640;BME280;64233;51.486;6.332;2023-09-19T01:12:57;100573.13;;;13.66;100.00
75640;BME280;64233;51.486;6.332;2023-09-19T01:20:57;100578.56;;;13.61;100.00
75640;BME280;64233;51.486;6.332;2023-09-19T01:26:06;100581.53;;;13.59;100.00
75640;BME280;64233;51.486;6.332;2023-09-19T01:28:43;100596.09;;;13.53;100.00
75640;BME280;64233;51.486;6.332;2023-09-19T01:31:13;100591.81;;;13.42;100.00
75640;BME280;64233;51.486;6.332;2023-09-19T01:33:54;100600.75;;;13.42;100.00
75640;BME280;64233;51.486;6.332;2023-09-19T01:36:28;100599.41;;;13.40;100.00
75640;BME280;64233;51.486;6.332;2023-09-19T01:38:55;100603.41;;;13.32;100.00
75640;BME280;64233;51.486;6.332;2023-09-19T01:41:37;100603.97;;;13.29;100.00
75640;BME280;64233;51.486;6.332;2023-09-19T01:44:09;100605.06;;;13.38;100.00
75640;BME280;64233;51.486;6.332;2023-09-19T01:46:40;100600.19;;;13.40;100.00
75640;BME280;64233;51.486;6.332;2023-09-19T01:49:18;100610.72;;;13.37;100.00
75640;BME280;64233;51.486;6.332;2023-09-19T01:54:28;100602.09;;;13.35;100.00
75640;BME280;64233;51.486;6.332;2023-09-19T01:59:45;100603.97;;;13.45;100.00
75640;BME280;64233;51.486;6.332;2023-09-19T02:02:13;100605.59;;;13.46;100.00
75640;BME280;64233;51.486;6.332;2023-09-19T02:04:40;100604.25;;;13.38;100.00
75640;BME280;64233;51.486;6.332;2023-09-19T02:07:05;100613.13;;;13.33;100.00
75640;BME280;64233;51.486;6.332;2023-09-19T02:09:31;100606.94;;;13.33;100.00
75640;BME280;64233;51.486;6.332;2023-09-19T02:11:56;100612.59;;;13.31;100.00
75640;BME280;64233;51.486;6.332;2023-09-19T02:14:21;100612.06;;;13.34;100.00
75640;BME280;64233;51.486;6.332;2023-09-19T02:16:47;100607.47;;;13.30;100.00
75640;BME280;64233;51.486;6.332;2023-09-19T02:19:13;100610.69;;;13.26;100.00
75640;BME280;64233;51.486;6.332;2023-09-19T02:21:38;100616.91;;;13.17;100.00
75640;BME280;64233;51.486;6.332;2023-09-19T02:24:06;100619.34;;;13.23;100.00
75640;BME280;64233;51.486;6.332;2023-09-19T02:26:33;100620.13;;;13.24;100.00
75640;BME280;64233;51.486;6.332;2023-09-19T02:29:02;100623.09;;;13.33;100.00
75640;BME280;64233;51.486;6.332;2023-09-19T02:31:30;100625.28;;;13.25;100.00
75640;BME280;64233;51.486;6.332;2023-09-19T02:33:55;100623.38;;;13.26;100.00
75640;BME280;64233;51.486;6.332;2023-09-19T02:36:21;100626.91;;;13.21;100.00
75640;BME280;64233;51.486;6.332;2023-09-19T02:38:48;100626.63;;;13.18;100.00
75640;BME280;64233;51.486;6.332;2023-09-19T02:41:14;100634.41;;;13.30;100.00
75640;BME280;64233;51.486;6.332;2023-09-19T02:43:39;100625.28;;;13.20;100.00
75640;BME280;64233;51.486;6.332;2023-09-19T02:46:05;100629.03;;;13.19;100.00
75640;BME280;64233;51.486;6.332;2023-09-19T02:48:31;100624.47;;;13.15;100.00
75640;BME280;64233;51.486;6.332;2023-09-19T02:50:57;100635.25;;;13.15;100.00
75640;BME280;64233;51.486;6.332;2023-09-19T02:53:22;100634.97;;;13.11;100.00
75640;BME280;64233;51.486;6.332;2023-09-19T02:55:49;100638.22;;;13.08;100.00
75640;BME280;64233;51.486;6.332;2023-09-19T02:58:15;100640.91;;;13.13;100.00
75640;BME280;64233;51.486;6.332;2023-09-19T03:00:41;100639.03;;;13.08;100.00
75640;BME280;64233;51.486;6.332;2023-09-19T03:03:12;100647.66;;;13.16;100.00
75640;BME280;64233;51.486;6.332;2023-09-19T03:05:38;100638.78;;;13.10;100.00
75640;BME280;64233;51.486;6.332;2023-09-19T03:08:03;100644.44;;;13.03;100.00
75640;BME280;64233;51.486;6.332;2023-09-19T03:10:30;100640.38;;;13.06;100.00
75640;BME280;64233;51.486;6.332;2023-09-19T03:12:56;100641.47;;;13.10;100.00
75640;BME280;64233;51.486;6.332;2023-09-19T03:15:22;100657.09;;;13.08;100.00
75640;BME280;64233;51.486;6.332;2023-09-19T03:17:48;100647.13;;;12.98;100.00
75640;BME280;64233;51.486;6.332;2023-09-19T03:20:15;100646.31;;;12.92;100.00
75640;BME280;64233;51.486;6.332;2023-09-19T03:22:43;100646.84;;;12.95;100.00
75640;BME280;64233;51.486;6.332;2023-09-19T03:25:08;100656.28;;;12.87;100.00
75640;BME280;64233;51.486;6.332;2023-09-19T03:27:37;100657.91;;;12.78;100.00
75640;BME280;64233;51.486;6.332;2023-09-19T03:30:04;100662.75;;;12.81;100.00
75640;BME280;64233;51.486;6.332;2023-09-19T03:32:36;100658.44;;;12.80;100.00
75640;BME280;64233;51.486;6.332;2023-09-19T03:35:02;100664.91;;;12.84;100.00
75640;BME280;64233;51.486;6.332;2023-09-19T03:37:31;100662.75;;;12.86;100.00
75640;BME280;64233;51.486;6.332;2023-09-19T03:39:56;100663.03;;;12.84;100.00
75640;BME280;64233;51.486;6.332;2023-09-19T03:42:22;100667.59;;;12.89;100.00
75640;BME280;64233;51.486;6.332;2023-09-19T03:44:51;100657.91;;;12.88;100.00
75640;BME280;64233;51.486;6.332;2023-09-19T03:47:17;100655.50;;;12.91;100.00
75640;BME280;64233;51.486;6.332;2023-09-19T03:49:43;100656.03;;;12.83;100.00
75640;BME280;64233;51.486;6.332;2023-09-19T03:52:08;100654.69;;;12.86;100.00
75640;BME280;64233;51.486;6.332;2023-09-19T03:54:33;100656.28;;;12.87;100.00
75640;BME280;64233;51.486;6.332;2023-09-19T03:56:58;100653.31;;;12.83;100.00
75640;BME280;64233;51.486;6.332;2023-09-19T03:59:24;100649.03;;;12.87;100.00
75640;BME280;64233;51.486;6.332;2023-09-19T04:01:49;100650.38;;;12.90;100.00
75640;BME280;64233;51.486;6.332;2023-09-19T04:04:15;100649.03;;;12.87;100.00
75640;BME280;64233;51.486;6.332;2023-09-19T04:06:40;100642.81;;;12.87;100.00
75640;BME280;64233;51.486;6.332;2023-09-19T04:09:06;100644.41;;;12.83;100.00
75640;BME280;64233;51.486;6.332;2023-09-19T04:11:33;100649.81;;;12.83;100.00
75640;BME280;64233;51.486;6.332;2023-09-19T04:13:58;100653.31;;;12.83;100.00
75640;BME280;64233;51.486;6.332;2023-09-19T04:16:24;100653.59;;;12.82;100.00
75640;BME280;64233;51.486;6.332;2023-09-19T04:18:49;100640.38;;;12.85;100.00
75640;BME280;64233;51.486;6.332;2023-09-19T04:21:14;100642.53;;;12.88;100.00
75640;BME280;64233;51.486;6.332;2023-09-19T04:23:40;100639.06;;;12.93;100.00
75640;BME280;64233;51.486;6.332;2023-09-19T04:26:05;100645.78;;;12.90;100.00
75640;BME280;64233;51.486;6.332;2023-09-19T04:28:31;100645.78;;;12.90;100.00
75640;BME280;64233;51.486;6.332;2023-09-19T04:30:59;100649.00;;;12.98;100.00
75640;BME280;64233;51.486;6.332;2023-09-19T04:33:25;100650.09;;;12.97;100.00
75640;BME280;64233;51.486;6.332;2023-09-19T04:35:52;100647.94;;;12.94;100.00
75640;BME280;64233;51.486;6.332;2023-09-19T04:38:18;100654.41;;;13.03;100.00
75640;BME280;64233;51.486;6.332;2023-09-19T04:40:44;100660.59;;;13.03;100.00
75640;BME280;64233;51.486;6.332;2023-09-19T04:43:10;100663.03;;;13.10;100.00
75640;BME280;64233;51.486;6.332;2023-09-19T04:45:35;100662.47;;;13.13;100.00
75640;BME280;64233;51.486;6.332;2023-09-19T04:48:00;100676.22;;;12.96;100.00
75640;BME280;64233;51.486;6.332;2023-09-19T04:50:25;100670.84;;;12.96;100.00
75640;BME280;64233;51.486;6.332;2023-09-19T04:52:53;100681.06;;;13.15;100.00
75640;BME280;64233;51.486;6.332;2023-09-19T04:55:19;100680.53;;;13.13;100.00
75640;BME280;64233;51.486;6.332;2023-09-19T04:57:48;100697.75;;;13.17;100.00
75640;BME280;64233;51.486;6.332;2023-09-19T05:00:15;100691.03;;;13.19;100.00
75640;BME280;64233;51.486;6.332;2023-09-19T05:02:42;100697.25;;;13.20;100.00
75640;BME280;64233;51.486;6.332;2023-09-19T05:05:09;100713.94;;;13.22;100.00
75640;BME280;64233;51.486;6.332;2023-09-19T05:07:36;100703.69;;;13.24;100.00
75640;BME280;64233;51.486;6.332;2023-09-19T05:10:02;100712.59;;;13.30;100.00
75640;BME280;64233;51.486;6.332;2023-09-19T05:12:30;100729.03;;;13.28;100.00
75640;BME280;64233;51.486;6.332;2023-09-19T05:14:56;100718.81;;;13.30;100.00
75640;BME280;64233;51.486;6.332;2023-09-19T05:17:21;100731.75;;;13.33;100.00
75640;BME280;64233;51.486;6.332;2023-09-19T05:19:46;100720.16;;;13.38;100.00
75640;BME280;64233;51.486;6.332;2023-09-19T05:22:12;100729.31;;;13.42;100.00
75640;BME280;64233;51.486;6.332;2023-09-19T05:24:37;100738.75;;;13.39;100.00
75640;BME280;64233;51.486;6.332;2023-09-19T05:27:04;100754.66;;;13.41;100.00
75640;BME280;64233;51.486;6.332;2023-09-19T05:29:29;100747.94;;;13.38;100.00
75640;BME280;64233;51.486;6.332;2023-09-19T05:31:55;100744.97;;;13.45;100.00
75640;BME280;64233;51.486;6.332;2023-09-19T05:34:20;100738.78;;;13.50;100.00
75640;BME280;64233;51.486;6.332;2023-09-19T05:36:45;100740.66;;;13.49;100.00
75640;BME280;64233;51.486;6.332;2023-09-19T05:39:10;100741.75;;;13.48;100.00
75640;BME280;64233;51.486;6.332;2023-09-19T05:41:37;100744.44;;;13.48;100.00
75640;BME280;64233;51.486;6.332;2023-09-19T05:44:05;100742.53;;;13.49;100.00
75640;BME280;64233;51.486;6.332;2023-09-19T05:46:32;100759.53;;;13.54;100.00
75640;BME280;64233;51.486;6.332;2023-09-19T05:48:57;100748.47;;;13.56;100.00
75640;BME280;64233;51.486;6.332;2023-09-19T05:51:22;100744.97;;;13.55;100.00
75640;BME280;64233;51.486;6.332;2023-09-19T05:53:48;100757.09;;;13.53;100.00
75640;BME280;64233;51.486;6.332;2023-09-19T05:56:14;100748.19;;;13.52;100.00
75640;BME280;64233;51.486;6.332;2023-09-19T05:58:40;100732.81;;;13.58;100.00
75640;BME280;64233;51.486;6.332;2023-09-19T06:01:08;100737.94;;;13.65;100.00
75640;BME280;64233;51.486;6.332;2023-09-19T06:03:34;100736.31;;;13.64;100.00
75640;BME280;64233;51.486;6.332;2023-09-19T06:06:01;100746.84;;;13.60;100.00
75640;BME280;64233;51.486;6.332;2023-09-19T06:08:26;100744.69;;;13.52;100.00
75640;BME280;64233;51.486;6.332;2023-09-19T06:10:51;100746.59;;;13.51;100.00
75640;BME280;64233;51.486;6.332;2023-09-19T06:13:17;100739.31;;;13.52;100.00
75640;BME280;64233;51.486;6.332;2023-09-19T06:15:43;100737.69;;;13.51;100.00
75640;BME280;64233;51.486;6.332;2023-09-19T06:18:11;100741.72;;;13.58;100.00
75640;BME280;64233;51.486;6.332;2023-09-19T06:20:38;100736.34;;;13.58;100.00
75640;BME280;64233;51.486;6.332;2023-09-19T06:23:09;100741.72;;;13.53;100.00
75640;BME280;64233;51.486;6.332;2023-09-19T06:25:35;100749.53;;;13.55;100.00
75640;BME280;64233;51.486;6.332;2023-09-19T06:28:00;100740.66;;;13.54;100.00
75640;BME280;64233;51.486;6.332;2023-09-19T06:30:29;100748.75;;;13.59;100.00
75640;BME280;64233;51.486;6.332;2023-09-19T06:32:57;100749.28;;;13.62;100.00
75640;BME280;64233;51.486;6.332;2023-09-19T06:35:23;100745.22;;;13.64;100.00
75640;BME280;64233;51.486;6.332;2023-09-19T06:37:48;100749.78;;;13.64;100.00
75640;BME280;64233;51.486;6.332;2023-09-19T06:40:14;100756.28;;;13.63;100.00
75640;BME280;64233;51.486;6.332;2023-09-19T06:42:44;100755.47;;;13.62;100.00
75640;BME280;64233;51.486;6.332;2023-09-19T06:45:12;100746.31;;;13.63;100.00
75640;BME280;64233;51.486;6.332;2023-09-19T06:47:42;100753.56;;;13.73;100.00
75640;BME280;64233;51.486;6.332;2023-09-19T06:50:08;100763.00;;;13.70;100.00
75640;BME280;64233;51.486;6.332;2023-09-19T06:52:39;100768.69;;;13.74;100.00
75640;BME280;64233;51.486;6.332;2023-09-19T06:55:04;100769.22;;;13.81;100.00
75640;BME280;64233;51.486;6.332;2023-09-19T06:57:31;100767.84;;;13.89;100.00
75640;BME280;64233;51.486;6.332;2023-09-19T06:59:56;100771.63;;;13.88;100.00
75640;BME280;64233;51.486;6.332;2023-09-19T07:02:21;100776.44;;;13.96;100.00
75640;BME280;64233;51.486;6.332;2023-09-19T07:04:47;100772.44;;;13.93;100.00
75640;BME280;64233;51.486;6.332;2023-09-19T07:07:12;100772.44;;;13.93;100.00
75640;BME280;64233;51.486;6.332;2023-09-19T07:09:39;100771.06;;;13.96;100.00
75640;BME280;64233;51.486;6.332;2023-09-19T07:12:04;100782.38;;;14.03;100.00
75640;BME280;64233;51.486;6.332;2023-09-19T07:14:30;100784.00;;;14.09;100.00
75640;BME280;64233;51.486;6.332;2023-09-19T07:16:55;100786.69;;;14.09;100.00
75640;BME280;64233;51.486;6.332;2023-09-19T07:19:20;100784.81;;;14.05;100.00
75640;BME280;64233;51.486;6.332;2023-09-19T07:21:46;100775.63;;;14.06;100.00
75640;BME280;64233;51.486;6.332;2023-09-19T07:24:12;100781.28;;;14.09;100.00
75640;BME280;64233;51.486;6.332;2023-09-19T07:26:38;100766.69;;;14.16;100.00
75640;BME280;64233;51.486;6.332;2023-09-19T07:29:05;100774.50;;;14.17;100.00
75640;BME280;64233;51.486;6.332;2023-09-19T07:31:32;100770.72;;;14.18;100.00
75640;BME280;64233;51.486;6.332;2023-09-19T07:33:58;100773.72;;;14.17;100.00
75640;BME280;64233;51.486;6.332;2023-09-19T07:36:24;100767.25;;;14.18;100.00
75640;BME280;64233;51.486;6.332;2023-09-19T07:38:49;100778.84;;;14.18;100.00
75640;BME280;64233;51.486;6.332;2023-09-19T07:41:15;100772.06;;;14.21;100.00
75640;BME280;64233;51.486;6.332;2023-09-19T07:43:40;100784.50;;;14.22;100.00
75640;BME280;64233;51.486;6.332;2023-09-19T07:46:06;100785.28;;;14.27;100.00
75640;BME280;64233;51.486;6.332;2023-09-19T07:48:35;100799.59;;;14.28;100.00
75640;BME280;64233;51.486;6.332;2023-09-19T07:51:05;100787.69;;;14.34;100.00
75640;BME280;64233;51.486;6.332;2023-09-19T07:53:31;100786.06;;;14.38;100.00
75640;BME280;64233;51.486;6.332;2023-09-19T07:56:07;100779.78;;;14.53;100.00
75640;BME280;64233;51.486;6.332;2023-09-19T07:58:34;100780.84;;;14.57;100.00
75640;BME280;64233;51.486;6.332;2023-09-19T08:01:06;100783.84;;;14.51;100.00
75640;BME280;64233;51.486;6.332;2023-09-19T08:03:33;100775.19;;;14.54;100.00
75640;BME280;64233;51.486;6.332;2023-09-19T08:05:59;100783.28;;;14.59;100.00
75640;BME280;64233;51.486;6.332;2023-09-19T08:08:25;100787.56;;;14.70;100.00
75640;BME280;64233;51.486;6.332;2023-09-19T08:10:55;100784.53;;;14.82;100.00
75640;BME280;64233;51.486;6.332;2023-09-19T08:13:22;100786.97;;;14.78;100.00
75640;BME280;64233;51.486;6.332;2023-09-19T08:15:48;100782.63;;;14.83;100.00
75640;BME280;64233;51.486;6.332;2023-09-19T08:18:16;100783.41;;;14.88;100.00
75640;BME280;64233;51.486;6.332;2023-09-19T08:20:42;100793.03;;;15.05;100.00
75640;BME280;64233;51.486;6.332;2023-09-19T08:23:08;100793.56;;;15.07;100.00
75640;BME280;64233;51.486;6.332;2023-09-19T08:25:33;100796.22;;;15.12;100.00
75640;BME280;64233;51.486;6.332;2023-09-19T08:27:59;100802.97;;;15.14;100.00
75640;BME280;64233;51.486;6.332;2023-09-19T08:30:28;100802.97;;;15.20;100.00
75640;BME280;64233;51.486;6.332;2023-09-19T08:33:02;100800.75;;;15.27;100.00
75640;BME280;64233;51.486;6.332;2023-09-19T08:35:29;100798.56;;;15.24;100.00
75640;BME280;64233;51.486;6.332;2023-09-19T08:37:55;100800.16;;;15.30;100.00
75640;BME280;64233;51.486;6.332;2023-09-19T08:40:21;100794.78;;;15.25;100.00
75640;BME280;64233;51.486;6.332;2023-09-19T08:42:50;100798.53;;;15.34;100.00
75640;BME280;64233;51.486;6.332;2023-09-19T08:45:16;100787.72;;;15.29;100.00
75640;BME280;64233;51.486;6.332;2023-09-19T08:48:00;100792.50;;;15.42;100.00
75640;BME280;64233;51.486;6.332;2023-09-19T08:50:29;100795.22;;;15.42;100.00
75640;BME280;64233;51.486;6.332;2023-09-19T08:52:56;100801.03;;;15.55;100.00
75640;BME280;64233;51.486;6.332;2023-09-19T08:55:28;100802.63;;;15.61;100.00
75640;BME280;64233;51.486;6.332;2023-09-19T08:58:00;100797.16;;;15.66;100.00
75640;BME280;64233;51.486;6.332;2023-09-19T09:00:26;100793.34;;;15.72;100.00
75640;BME280;64233;51.486;6.332;2023-09-19T09:02:54;100805.63;;;15.89;100.00
75640;BME280;64233;51.486;6.332;2023-09-19T09:05:21;100801.44;;;16.01;100.00
75640;BME280;64233;51.486;6.332;2023-09-19T09:07:48;100799.50;;;15.78;100.00
75640;BME280;64233;51.486;6.332;2023-09-19T09:10:16;100797.31;;;15.85;100.00
75640;BME280;64233;51.486;6.332;2023-09-19T09:12:42;100796.03;;;16.01;100.00
75640;BME280;64233;51.486;6.332;2023-09-19T09:15:09;100783.50;;;16.11;100.00
75640;BME280;64233;51.486;6.332;2023-09-19T09:17:37;100778.13;;;16.06;100.00
75640;BME280;64233;51.486;6.332;2023-09-19T09:20:02;100778.75;;;15.97;100.00
75640;BME280;64233;51.486;6.332;2023-09-19T09:22:30;100784.75;;;15.94;100.00
75640;BME280;64233;51.486;6.332;2023-09-19T09:24:57;100772.50;;;16.02;100.00
75640;BME280;64233;51.486;6.332;2023-09-19T09:27:30;100782.66;;;16.10;100.00
75640;BME280;64233;51.486;6.332;2023-09-19T09:29:56;100791.53;;;16.16;100.00
75640;BME280;64233;51.486;6.332;2023-09-19T09:34:58;100782.56;;;16.45;100.00
75640;BME280;64233;51.486;6.332;2023-09-19T09:37:25;100781.38;;;16.32;100.00
75640;BME280;64233;51.486;6.332;2023-09-19T09:40:02;100784.44;;;16.44;100.00
75640;BME280;64233;51.486;6.332;2023-09-19T09:42:40;100785.38;;;16.78;100.00
75640;BME280;64233;51.486;6.332;2023-09-19T09:45:16;100777.75;;;16.61;100.00
75640;BME280;64233;51.486;6.332;2023-09-19T09:48:02;100779.88;;;16.64;100.00
75640;BME280;64233;51.486;6.332;2023-09-19T09:50:46;100783.19;;;16.80;100.00
75640;BME280;64233;51.486;6.332;2023-09-19T09:53:28;100793.81;;;16.76;100.00
75640;BME280;64233;51.486;6.332;2023-09-19T09:55:58;100788.88;;;16.78;100.00
75640;BME280;64233;51.486;6.332;2023-09-19T09:58:25;100791.88;;;16.77;100.00
75640;BME280;64233;51.486;6.332;2023-09-19T10:00:55;100784.69;;;17.10;100.00
75640;BME280;64233;51.486;6.332;2023-09-19T10:03:40;100774.38;;;16.69;100.00
75640;BME280;64233;51.486;6.332;2023-09-19T10:06:13;100774.16;;;16.65;100.00
75640;BME280;64233;51.486;6.332;2023-09-19T10:09:04;100778.78;;;16.84;100.00
75640;BME280;64233;51.486;6.332;2023-09-19T10:14:09;100779.81;;;16.69;100.00
75640;BME280;64233;51.486;6.332;2023-09-19T10:16:40;100771.97;;;16.67;100.00
75640;BME280;64233;51.486;6.332;2023-09-19T10:19:07;100774.41;;;16.88;100.00
75640;BME280;64233;51.486;6.332;2023-09-19T10:21:34;100770.31;;;17.10;100.00
75640;BME280;64233;51.486;6.332;2023-09-19T10:24:03;100760.03;;;17.26;100.00
75640;BME280;64233;51.486;6.332;2023-09-19T10:26:30;100766.47;;;17.11;100.00
75640;BME280;64233;51.486;6.332;2023-09-19T10:28:56;100758.50;;;17.00;100.00
75640;BME280;64233;51.486;6.332;2023-09-19T10:31:23;100761.75;;;17.02;100.00
75640;BME280;64233;51.486;6.332;2023-09-19T10:33:51;100749.34;;;16.96;100.00
75640;BME280;64233;51.486;6.332;2023-09-19T10:36:19;100762.63;;;16.98;100.00
75640;BME280;64233;51.486;6.332;2023-09-19T10:38:45;100766.03;;;17.23;100.00
75640;BME280;64233;51.486;6.332;2023-09-19T10:41:14;100765.22;;;17.22;100.00
75640;BME280;64233;51.486;6.332;2023-09-19T10:43:42;100767.78;;;17.32;100.00
75640;BME280;64233;51.486;6.332;2023-09-19T10:46:10;100770.03;;;17.44;100.00
75640;BME280;64233;51.486;6.332;2023-09-19T10:48:38;100764.34;;;17.60;100.00
75640;BME280;64233;51.486;6.332;2023-09-19T10:51:09;100760.00;;;17.59;100.00
75640;BME280;64233;51.486;6.332;2023-09-19T10:56:21;100770.75;;;17.50;100.00
75640;BME280;64233;51.486;6.332;2023-09-19T10:58:48;100768.69;;;17.61;100.00
75640;BME280;64233;51.486;6.332;2023-09-19T11:01:14;100768.59;;;17.80;100.00
75640;BME280;64233;51.486;6.332;2023-09-19T11:03:41;100777.34;;;17.77;100.00
75640;BME280;64233;51.486;6.332;2023-09-19T11:06:17;100771.47;;;17.55;100.00
75640;BME280;64233;51.486;6.332;2023-09-19T11:09:00;100771.59;;;17.31;100.00
75640;BME280;64233;51.486;6.332;2023-09-19T11:11:55;100764.94;;;17.24;100.00
75640;BME280;64233;51.486;6.332;2023-09-19T11:30:50;100752.41;;;17.88;100.00
75640;BME280;64233;51.486;6.332;2023-09-19T11:36:06;100753.50;;;17.87;100.00
75640;BME280;64233;51.486;6.332;2023-09-19T11:43:45;100731.00;;;17.87;100.00
75640;BME280;64233;51.486;6.332;2023-09-19T11:46:11;100743.47;;;18.16;100.00
75640;BME280;64233;51.486;6.332;2023-09-19T11:48:38;100721.78;;;18.02;100.00
75640;BME280;64233;51.486;6.332;2023-09-19T11:51:14;100722.09;;;18.00;100.00
75640;BME280;64233;51.486;6.332;2023-09-19T11:53:52;100724.66;;;18.33;100.00
75640;BME280;64233;51.486;6.332;2023-09-19T11:56:20;100722.25;;;18.46;100.00
75640;BME280;64233;51.486;6.332;2023-09-19T11:58:48;100713.66;;;18.52;100.00
75640;BME280;64233;51.486;6.332;2023-09-19T12:01:21;100712.63;;;18.62;100.00
75640;BME280;64233;51.486;6.332;2023-09-19T12:03:52;100707.91;;;18.17;100.00
75640;BME280;64233;51.486;6.332;2023-09-19T12:06:19;100716.63;;;18.28;100.00
75640;BME280;64233;51.486;6.332;2023-09-19T12:08:47;100715.25;;;18.53;100.00
75640;BME280;64233;51.486;6.332;2023-09-19T12:11:14;100708.09;;;18.57;100.00
75640;BME280;64233;51.486;6.332;2023-09-19T12:13:47;100710.09;;;18.29;100.00
75640;BME280;64233;51.486;6.332;2023-09-19T12:16:17;100714.34;;;18.58;100.00
75640;BME280;64233;51.486;6.332;2023-09-19T12:18:44;100719.69;;;18.49;100.00
75640;BME280;64233;51.486;6.332;2023-09-19T12:21:22;100708.91;;;18.58;100.00
75640;BME280;64233;51.486;6.332;2023-09-19T12:24:17;100703.34;;;18.27;100.00
75640;BME280;64233;51.486;6.332;2023-09-19T12:26:45;100708.53;;;18.37;100.00
75640;BME280;64233;51.486;6.332;2023-09-19T12:29:18;100696.38;;;18.71;100.00
75640;BME280;64233;51.486;6.332;2023-09-19T12:31:54;100691.03;;;18.43;100.00
75640;BME280;64233;51.486;6.332;2023-09-19T12:34:27;100694.16;;;18.36;100.00
75640;BME280;64233;51.486;6.332;2023-09-19T12:37:09;100700.06;;;18.52;100.00
75640;BME280;64233;51.486;6.332;2023-09-19T12:39:45;100693.56;;;18.39;100.00
75640;BME280;64233;51.486;6.332;2023-09-19T12:42:22;100699.31;;;18.24;100.00
75640;BME280;64233;51.486;6.332;2023-09-19T12:44:50;100691.19;;;18.10;100.00
75640;BME280;64233;51.486;6.332;2023-09-19T12:47:22;100687.06;;;18.13;100.00
75640;BME280;64233;51.486;6.332;2023-09-19T12:50:09;100695.91;;;18.18;100.00
75640;BME280;64233;51.486;6.332;2023-09-19T12:52:49;100705.56;;;18.61;100.00
75640;BME280;64233;51.486;6.332;2023-09-19T12:55:22;100701.81;;;18.71;100.00
75640;BME280;64233;51.486;6.332;2023-09-19T13:00:35;100691.34;;;18.41;100.00
75640;BME280;64233;51.486;6.332;2023-09-19T13:03:18;100701.28;;;18.46;100.00
75640;BME280;64233;51.486;6.332;2023-09-19T13:06:02;100689.81;;;18.49;100.00
75640;BME280;64233;51.486;6.332;2023-09-19T13:08:31;100678.69;;;18.59;100.00
75640;BME280;64233;51.486;6.332;2023-09-19T13:11:16;100700.28;;;18.42;100.00
75640;BME280;64233;51.486;6.332;2023-09-19T13:17:14;100700.91;;;18.39;100.00
75640;BME280;64233;51.486;6.332;2023-09-19T13:19:46;100705.34;;;18.21;100.00
75640;BME280;64233;51.486;6.332;2023-09-19T13:25:07;100689.16;;;18.16;100.00
75640;BME280;64233;51.486;6.332;2023-09-19T13:27:33;100704.47;;;18.12;100.00
75640;BME280;64233;51.486;6.332;2023-09-19T13:29:58;100698.19;;;18.39;100.00
75640;BME280;64233;51.486;6.332;2023-09-19T13:32:23;100703.34;;;18.27;100.00
75640;BME280;64233;51.486;6.332;2023-09-19T13:34:49;100695.41;;;18.30;100.00
75640;BME280;64233;51.486;6.332;2023-09-19T13:37:16;100702.75;;;18.16;100.00
75640;BME280;64233;51.486;6.332;2023-09-19T13:39:43;100707.78;;;18.09;100.00
75640;BME280;64233;51.486;6.332;2023-09-19T13:42:13;100704.97;;;18.14;100.00